sensor_id;sensor_type;location;lat;lon;timestamp;pressure;altitude;pressure_sealevel;temperature;humidity
72124;BME280;63818;37.134;-8.548;2022-10-03T00:02:30;101634.2;;;22.9;48.4
72124;BME280;63818;37.134;-8.548;2022-10-03T00:07:37;101620.8;;;22.9;48.7
72124;BME280;63818;37.134;-8.548;2022-10-03T00:12:40;101622.4;;;22.9;48.7
72124;BME280;63818;37.134;-8.548;2022-10-03T00:17:41;101622.8;;;22.9;48.9
72124;BME280;63818;37.134;-8.548;2022-10-03T00:22:33;101618.8;;;22.9;49.2
72124;BME280;63818;37.134;-8.548;2022-10-03T00:27:31;101634.4;;;22.9;49.6
72124;BME280;63818;37.134;-8.548;2022-10-03T00:32:25;101631.3;;;22.9;49.8
72124;BME280;63818;37.134;-8.548;2022-10-03T00:37:26;101623.9;;;22.9;50.0
72124;BME280;63818;37.134;-8.548;2022-10-03T00:50:55;101639.8;;;22.8;51.0
72124;BME280;63818;37.134;-8.548;2022-10-03T00:55:56;101626.1;;;22.8;51.2
72124;BME280;63818;37.134;-8.548;2022-10-03T01:00:49;101631.1;;;22.7;51.3
72124;BME280;63818;37.134;-8.548;2022-10-03T01:05:51;101627.5;;;22.7;51.8
72124;BME280;63818;37.134;-8.548;2022-10-03T01:10:46;101628.6;;;22.7;51.7
72124;BME280;63818;37.134;-8.548;2022-10-03T01:15:44;101631.1;;;22.7;51.5
72124;BME280;63818;37.134;-8.548;2022-10-03T01:20:38;101633.0;;;22.7;51.5
72124;BME280;63818;37.134;-8.548;2022-10-03T01:25:38;101640.0;;;22.6;51.8
72124;BME280;63818;37.134;-8.548;2022-10-03T01:30:30;101636.9;;;22.7;51.8
72124;BME280;63818;37.134;-8.548;2022-10-03T01:35:26;101643.2;;;22.7;51.6
72124;BME280;63818;37.134;-8.548;2022-10-03T01:40:22;101641.1;;;22.6;52.1
72124;BME280;63818;37.134;-8.548;2022-10-03T01:45:25;101631.0;;;22.6;52.0
72124;BME280;63818;37.134;-8.548;2022-10-03T01:50:18;101640.4;;;22.6;52.0
72124;BME280;63818;37.134;-8.548;2022-10-03T01:55:18;101642.7;;;22.6;51.9
72124;BME280;63818;37.134;-8.548;2022-10-03T02:00:11;101646.6;;;22.6;52.2
72124;BME280;63818;37.134;-8.548;2022-10-03T02:05:02;101637.9;;;22.6;52.3
72124;BME280;63818;37.134;-8.548;2022-10-03T02:09:54;101639.8;;;22.5;52.7
72124;BME280;63818;37.134;-8.548;2022-10-03T02:14:52;101635.9;;;22.6;53.0
72124;BME280;63818;37.134;-8.548;2022-10-03T02:19:46;101633.9;;;22.5;53.3
72124;BME280;63818;37.134;-8.548;2022-10-03T02:24:42;101628.7;;;22.4;53.4
72124;BME280;63818;37.134;-8.548;2022-10-03T02:29:55;101643.2;;;22.5;53.5
72124;BME280;63818;37.134;-8.548;2022-10-03T02:35:23;101639.9;;;22.4;53.8
72124;BME280;63818;37.134;-8.548;2022-10-03T02:41:11;101640.7;;;22.4;53.9
72124;BME280;63818;37.134;-8.548;2022-10-03T02:51:33;101636.0;;;22.4;54.1
72124;BME280;63818;37.134;-8.548;2022-10-03T03:04:01;101627.9;;;22.2;54.8
72124;BME280;63818;37.134;-8.548;2022-10-03T03:09:00;101641.0;;;22.3;54.7
72124;BME280;63818;37.134;-8.548;2022-10-03T03:14:24;101636.7;;;22.3;54.6
72124;BME280;63818;37.134;-8.548;2022-10-03T03:24:38;101642.3;;;22.4;54.3
72124;BME280;63818;37.134;-8.548;2022-10-03T03:29:40;101631.2;;;22.3;54.6
72124;BME280;63818;37.134;-8.548;2022-10-03T03:34:32;101647.5;;;22.3;55.3
72124;BME280;63818;37.134;-8.548;2022-10-03T03:39:37;101644.8;;;22.3;55.3
72124;BME280;63818;37.134;-8.548;2022-10-03T03:44:49;101653.4;;;22.3;54.9
72124;BME280;63818;37.134;-8.548;2022-10-03T03:50:00;101645.6;;;22.3;54.9
72124;BME280;63818;37.134;-8.548;2022-10-03T03:55:58;101636.6;;;22.3;55.1
72124;BME280;63818;37.134;-8.548;2022-10-03T04:00:55;101633.1;;;22.3;55.5
72124;BME280;63818;37.134;-8.548;2022-10-03T04:06:02;101620.5;;;22.2;55.7
72124;BME280;63818;37.134;-8.548;2022-10-03T04:10:58;101635.6;;;22.1;55.7
72124;BME280;63818;37.134;-8.548;2022-10-03T04:15:54;101635.9;;;22.1;56.1
72124;BME280;63818;37.134;-8.548;2022-10-03T04:20:51;101624.9;;;22.1;56.3
72124;BME280;63818;37.134;-8.548;2022-10-03T04:25:49;101620.1;;;22.0;56.4
72124;BME280;63818;37.134;-8.548;2022-10-03T04:30:52;101620.4;;;22.0;57.0
72124;BME280;63818;37.134;-8.548;2022-10-03T04:36:59;101631.8;;;22.0;57.3
72124;BME280;63818;37.134;-8.548;2022-10-03T04:41:52;101619.5;;;21.9;57.5
72124;BME280;63818;37.134;-8.548;2022-10-03T04:46:48;101621.0;;;21.9;57.5
72124;BME280;63818;37.134;-8.548;2022-10-03T04:51:41;101609.1;;;21.8;57.5
72124;BME280;63818;37.134;-8.548;2022-10-03T04:56:41;101623.6;;;21.9;57.2
72124;BME280;63818;37.134;-8.548;2022-10-03T05:01:32;101621.8;;;21.7;57.6
72124;BME280;63818;37.134;-8.548;2022-10-03T05:06:27;101617.9;;;21.7;57.6
72124;BME280;63818;37.134;-8.548;2022-10-03T05:11:23;101633.6;;;21.8;57.6
72124;BME280;63818;37.134;-8.548;2022-10-03T05:16:19;101632.8;;;21.7;57.8
72124;BME280;63818;37.134;-8.548;2022-10-03T05:21:12;101645.6;;;21.7;58.4
72124;BME280;63818;37.134;-8.548;2022-10-03T05:26:06;101641.0;;;21.7;58.6
72124;BME280;63818;37.134;-8.548;2022-10-03T05:31:05;101643.7;;;21.7;58.8
72124;BME280;63818;37.134;-8.548;2022-10-03T05:36:04;101647.1;;;21.7;58.9
72124;BME280;63818;37.134;-8.548;2022-10-03T05:41:02;101647.3;;;21.8;58.8
72124;BME280;63818;37.134;-8.548;2022-10-03T05:45:59;101644.9;;;21.7;59.3
72124;BME280;63818;37.134;-8.548;2022-10-03T05:51:01;101650.4;;;21.7;59.7
72124;BME280;63818;37.134;-8.548;2022-10-03T05:56:06;101658.1;;;21.7;59.7
72124;BME280;63818;37.134;-8.548;2022-10-03T06:01:56;101663.2;;;21.7;60.0
72124;BME280;63818;37.134;-8.548;2022-10-03T06:07:03;101655.0;;;21.7;60.5
72124;BME280;63818;37.134;-8.548;2022-10-03T06:12:01;101664.2;;;21.6;61.1
72124;BME280;63818;37.134;-8.548;2022-10-03T06:17:00;101655.5;;;21.6;61.1
72124;BME280;63818;37.134;-8.548;2022-10-03T06:29:31;101675.7;;;21.5;62.1
72124;BME280;63818;37.134;-8.548;2022-10-03T06:34:49;101691.4;;;21.5;62.1
72124;BME280;63818;37.134;-8.548;2022-10-03T06:40:24;101691.4;;;21.5;62.5
72124;BME280;63818;37.134;-8.548;2022-10-03T06:45:58;101685.7;;;21.5;63.2
72124;BME280;63818;37.134;-8.548;2022-10-03T06:51:07;101686.5;;;21.4;63.8
72124;BME280;63818;37.134;-8.548;2022-10-03T07:01:06;101702.9;;;21.4;64.0
72124;BME280;63818;37.134;-8.548;2022-10-03T07:06:20;101713.8;;;21.4;64.5
72124;BME280;63818;37.134;-8.548;2022-10-03T07:11:37;101722.5;;;21.5;64.0
72124;BME280;63818;37.134;-8.548;2022-10-03T07:17:03;101732.0;;;21.5;64.1
72124;BME280;63818;37.134;-8.548;2022-10-03T07:24:32;101721.2;;;21.6;64.5
72124;BME280;63818;37.134;-8.548;2022-10-03T07:29:28;101736.6;;;21.7;65.3
72124;BME280;63818;37.134;-8.548;2022-10-03T07:41:15;101763.8;;;21.8;65.8
72124;BME280;63818;37.134;-8.548;2022-10-03T07:48:07;101765.0;;;21.8;66.5
72124;BME280;63818;37.134;-8.548;2022-10-03T07:53:13;101769.2;;;21.9;66.8
72124;BME280;63818;37.134;-8.548;2022-10-03T07:58:13;101764.6;;;21.9;67.3
72124;BME280;63818;37.134;-8.548;2022-10-03T08:05:32;101769.0;;;22.0;67.5
72124;BME280;63818;37.134;-8.548;2022-10-03T08:10:36;101773.1;;;22.1;68.0
72124;BME280;63818;37.134;-8.548;2022-10-03T08:15:29;101780.2;;;22.1;68.1
72124;BME280;63818;37.134;-8.548;2022-10-03T08:20:24;101781.0;;;22.1;68.5
72124;BME280;63818;37.134;-8.548;2022-10-03T08:25:23;101788.2;;;22.2;68.7
72124;BME280;63818;37.134;-8.548;2022-10-03T08:30:20;101794.1;;;22.2;69.0
72124;BME280;63818;37.134;-8.548;2022-10-03T08:36:08;101805.6;;;22.3;69.0
72124;BME280;63818;37.134;-8.548;2022-10-03T08:47:13;101799.6;;;22.4;69.3
72124;BME280;63818;37.134;-8.548;2022-10-03T08:52:12;101799.6;;;22.4;69.8
72124;BME280;63818;37.134;-8.548;2022-10-03T08:57:09;101794.6;;;22.5;70.3
72124;BME280;63818;37.134;-8.548;2022-10-03T09:04:14;101802.1;;;22.5;70.4
72124;BME280;63818;37.134;-8.548;2022-10-03T09:15:42;101813.8;;;22.7;70.7
72124;BME280;63818;37.134;-8.548;2022-10-03T09:23:00;101817.8;;;22.7;71.0
72124;BME280;63818;37.134;-8.548;2022-10-03T09:28:27;101836.2;;;22.7;71.2
72124;BME280;63818;37.134;-8.548;2022-10-03T09:33:49;101837.9;;;22.8;71.4
72124;BME280;63818;37.134;-8.548;2022-10-03T09:38:48;101851.2;;;22.8;71.4
72124;BME280;63818;37.134;-8.548;2022-10-03T09:44:03;101848.8;;;22.7;72.3
72124;BME280;63818;37.134;-8.548;2022-10-03T09:49:17;101850.6;;;22.7;72.1
72124;BME280;63818;37.134;-8.548;2022-10-03T09:55:09;101856.8;;;22.7;72.0
72124;BME280;63818;37.134;-8.548;2022-10-03T10:00:11;101846.2;;;22.7;71.0
72124;BME280;63818;37.134;-8.548;2022-10-03T10:05:07;101839.2;;;22.6;71.6
72124;BME280;63818;37.134;-8.548;2022-10-03T10:17:54;101859.4;;;22.8;71.7
72124;BME280;63818;37.134;-8.548;2022-10-03T10:23:01;101856.7;;;22.8;71.9
72124;BME280;63818;37.134;-8.548;2022-10-03T10:28:54;101857.9;;;22.8;72.1
72124;BME280;63818;37.134;-8.548;2022-10-03T10:41:20;101859.5;;;22.8;70.7
72124;BME280;63818;37.134;-8.548;2022-10-03T11:11:03;101876.8;;;22.7;70.2
72124;BME280;63818;37.134;-8.548;2022-10-03T11:25:50;101861.0;;;22.8;71.4
72124;BME280;63818;37.134;-8.548;2022-10-03T11:38:39;101874.1;;;22.9;71.7
72124;BME280;63818;37.134;-8.548;2022-10-03T11:44:50;101872.7;;;23.0;71.2
72124;BME280;63818;37.134;-8.548;2022-10-03T11:50:29;101878.5;;;23.0;70.2
72124;BME280;63818;37.134;-8.548;2022-10-03T11:55:26;101873.6;;;23.0;69.9
72124;BME280;63818;37.134;-8.548;2022-10-03T12:00:17;101867.5;;;22.9;70.8
72124;BME280;63818;37.134;-8.548;2022-10-03T12:05:10;101869.4;;;22.9;70.4
72124;BME280;63818;37.134;-8.548;2022-10-03T12:10:03;101857.4;;;22.9;70.0
72124;BME280;63818;37.134;-8.548;2022-10-03T12:14:53;101842.4;;;22.9;70.2
72124;BME280;63818;37.134;-8.548;2022-10-03T12:19:49;101846.9;;;23.0;70.0
72124;BME280;63818;37.134;-8.548;2022-10-03T12:24:39;101838.4;;;23.1;69.2
72124;BME280;63818;37.134;-8.548;2022-10-03T12:29:28;101840.1;;;23.1;68.4
72124;BME280;63818;37.134;-8.548;2022-10-03T12:34:26;101838.2;;;23.1;68.0
72124;BME280;63818;37.134;-8.548;2022-10-03T12:39:26;101848.0;;;23.2;68.6
72124;BME280;63818;37.134;-8.548;2022-10-03T12:44:23;101823.4;;;23.2;68.4
72124;BME280;63818;37.134;-8.548;2022-10-03T12:49:17;101829.6;;;23.2;67.3
72124;BME280;63818;37.134;-8.548;2022-10-03T12:54:13;101825.8;;;23.2;67.5
72124;BME280;63818;37.134;-8.548;2022-10-03T12:59:09;101822.2;;;23.2;68.2
72124;BME280;63818;37.134;-8.548;2022-10-03T13:04:00;101827.0;;;23.3;68.1
72124;BME280;63818;37.134;-8.548;2022-10-03T13:08:55;101824.4;;;23.3;67.8
72124;BME280;63818;37.134;-8.548;2022-10-03T13:13:59;101820.8;;;23.5;67.3
72124;BME280;63818;37.134;-8.548;2022-10-03T13:18:54;101814.3;;;23.6;66.8
72124;BME280;63818;37.134;-8.548;2022-10-03T13:23:46;101809.0;;;23.8;66.1
72124;BME280;63818;37.134;-8.548;2022-10-03T13:28:46;101819.7;;;23.8;66.6
72124;BME280;63818;37.134;-8.548;2022-10-03T13:33:43;101818.5;;;23.9;67.4
72124;BME280;63818;37.134;-8.548;2022-10-03T13:39:34;101809.7;;;23.7;67.3
72124;BME280;63818;37.134;-8.548;2022-10-03T13:44:35;101798.2;;;23.9;66.5
72124;BME280;63818;37.134;-8.548;2022-10-03T13:49:26;101804.2;;;24.0;65.4
72124;BME280;63818;37.134;-8.548;2022-10-03T13:54:16;101795.3;;;24.0;65.7
72124;BME280;63818;37.134;-8.548;2022-10-03T13:59:06;101798.9;;;24.1;65.9
72124;BME280;63818;37.134;-8.548;2022-10-03T14:04:56;101806.4;;;24.1;66.2
72124;BME280;63818;37.134;-8.548;2022-10-03T14:10:07;101790.0;;;24.2;66.0
72124;BME280;63818;37.134;-8.548;2022-10-03T14:15:27;101791.7;;;24.3;66.4
72124;BME280;63818;37.134;-8.548;2022-10-03T14:22:06;101783.7;;;24.6;65.7
72124;BME280;63818;37.134;-8.548;2022-10-03T14:26:55;101780.8;;;24.8;64.7
72124;BME280;63818;37.134;-8.548;2022-10-03T14:31:50;101771.2;;;24.9;64.3
72124;BME280;63818;37.134;-8.548;2022-10-03T14:36:45;101774.5;;;25.1;63.8
72124;BME280;63818;37.134;-8.548;2022-10-03T14:41:43;101770.4;;;25.4;62.8
72124;BME280;63818;37.134;-8.548;2022-10-03T14:46:33;101765.1;;;26.6;59.3
72124;BME280;63818;37.134;-8.548;2022-10-03T14:51:27;101767.1;;;27.5;57.1
72124;BME280;63818;37.134;-8.548;2022-10-03T14:56:18;101764.3;;;27.7;55.7
72124;BME280;63818;37.134;-8.548;2022-10-03T15:01:14;101758.6;;;28.1;54.9
72124;BME280;63818;37.134;-8.548;2022-10-03T15:06:19;101758.9;;;28.4;54.1
72124;BME280;63818;37.134;-8.548;2022-10-03T15:11:12;101756.2;;;28.8;53.2
72124;BME280;63818;37.134;-8.548;2022-10-03T15:15:59;101755.9;;;28.8;52.8
72124;BME280;63818;37.134;-8.548;2022-10-03T15:20:47;101751.2;;;28.5;54.0
72124;BME280;63818;37.134;-8.548;2022-10-03T15:25:38;101757.3;;;28.4;53.9
72124;BME280;63818;37.134;-8.548;2022-10-03T15:30:27;101759.3;;;28.3;54.7
72124;BME280;63818;37.134;-8.548;2022-10-03T15:35:18;101763.7;;;28.2;54.8
72124;BME280;63818;37.134;-8.548;2022-10-03T15:40:22;101755.4;;;28.2;54.6
72124;BME280;63818;37.134;-8.548;2022-10-03T15:45:18;101770.6;;;27.7;55.6
72124;BME280;63818;37.134;-8.548;2022-10-03T15:50:29;101753.3;;;27.1;57.5
72124;BME280;63818;37.134;-8.548;2022-10-03T15:55:17;101751.7;;;27.2;57.2
72124;BME280;63818;37.134;-8.548;2022-10-03T16:00:05;101750.1;;;27.4;57.0
72124;BME280;63818;37.134;-8.548;2022-10-03T16:04:54;101752.1;;;27.0;57.9
72124;BME280;63818;37.134;-8.548;2022-10-03T16:11:41;101734.0;;;26.7;58.9
72124;BME280;63818;37.134;-8.548;2022-10-03T16:16:37;101734.3;;;26.3;60.0
72124;BME280;63818;37.134;-8.548;2022-10-03T16:21:30;101744.9;;;26.3;59.9
72124;BME280;63818;37.134;-8.548;2022-10-03T16:26:22;101742.0;;;26.0;61.2
72124;BME280;63818;37.134;-8.548;2022-10-03T16:31:19;101739.1;;;25.6;61.9
72124;BME280;63818;37.134;-8.548;2022-10-03T16:36:09;101743.1;;;25.1;63.6
72124;BME280;63818;37.134;-8.548;2022-10-03T17:01:14;101744.5;;;24.2;67.3
72124;BME280;63818;37.134;-8.548;2022-10-03T17:06:06;101742.2;;;23.7;69.0
72124;BME280;63818;37.134;-8.548;2022-10-03T17:10:55;101748.3;;;23.5;69.3
72124;BME280;63818;37.134;-8.548;2022-10-03T17:15:48;101749.0;;;23.2;70.3
72124;BME280;63818;37.134;-8.548;2022-10-03T17:20:40;101752.3;;;23.4;70.0
72124;BME280;63818;37.134;-8.548;2022-10-03T17:25:42;101761.4;;;23.4;70.0
72124;BME280;63818;37.134;-8.548;2022-10-03T17:30:36;101763.9;;;23.5;69.4
72124;BME280;63818;37.134;-8.548;2022-10-03T17:35:30;101754.1;;;23.5;69.4
72124;BME280;63818;37.134;-8.548;2022-10-03T17:40:31;101752.7;;;23.6;68.9
72124;BME280;63818;37.134;-8.548;2022-10-03T17:45:29;101751.4;;;23.5;68.9
72124;BME280;63818;37.134;-8.548;2022-10-03T17:50:19;101745.5;;;23.5;68.0
72124;BME280;63818;37.134;-8.548;2022-10-03T17:55:14;101760.5;;;23.6;67.5
72124;BME280;63818;37.134;-8.548;2022-10-03T18:00:05;101764.9;;;23.6;66.6
72124;BME280;63818;37.134;-8.548;2022-10-03T18:04:55;101759.2;;;23.7;64.8
72124;BME280;63818;37.134;-8.548;2022-10-03T18:09:46;101759.6;;;23.8;64.3
72124;BME280;63818;37.134;-8.548;2022-10-03T18:14:43;101760.4;;;23.8;63.5
72124;BME280;63818;37.134;-8.548;2022-10-03T18:19:38;101760.4;;;23.8;63.2
72124;BME280;63818;37.134;-8.548;2022-10-03T18:25:05;101755.2;;;23.7;62.6
72124;BME280;63818;37.134;-8.548;2022-10-03T18:29:57;101753.6;;;23.6;62.1
72124;BME280;63818;37.134;-8.548;2022-10-03T18:34:47;101760.6;;;23.7;61.6
72124;BME280;63818;37.134;-8.548;2022-10-03T18:39:36;101758.2;;;23.6;61.2
72124;BME280;63818;37.134;-8.548;2022-10-03T18:44:23;101762.1;;;23.6;60.8
72124;BME280;63818;37.134;-8.548;2022-10-03T18:49:14;101759.8;;;23.6;60.6
72124;BME280;63818;37.134;-8.548;2022-10-03T18:54:06;101763.1;;;23.5;60.5
72124;BME280;63818;37.134;-8.548;2022-10-03T18:59:09;101769.8;;;23.5;60.8
72124;BME280;63818;37.134;-8.548;2022-10-03T19:03:59;101765.8;;;23.5;60.1
72124;BME280;63818;37.134;-8.548;2022-10-03T19:08:49;101763.4;;;23.4;58.8
72124;BME280;63818;37.134;-8.548;2022-10-03T19:13:42;101760.9;;;23.3;58.2
72124;BME280;63818;37.134;-8.548;2022-10-03T19:18:39;101768.2;;;23.2;57.6
72124;BME280;63818;37.134;-8.548;2022-10-03T19:23:34;101760.7;;;23.2;57.8
72124;BME280;63818;37.134;-8.548;2022-10-03T19:28:23;101775.5;;;23.2;57.2
72124;BME280;63818;37.134;-8.548;2022-10-03T19:33:19;101766.3;;;23.2;56.4
72124;BME280;63818;37.134;-8.548;2022-10-03T19:38:14;101769.4;;;23.2;55.9
72124;BME280;63818;37.134;-8.548;2022-10-03T19:43:14;101773.3;;;23.2;56.5
72124;BME280;63818;37.134;-8.548;2022-10-03T19:48:03;101774.9;;;23.0;58.1
72124;BME280;63818;37.134;-8.548;2022-10-03T19:52:56;101784.2;;;23.0;58.9
72124;BME280;63818;37.134;-8.548;2022-10-03T19:57:47;101800.9;;;22.9;59.3
72124;BME280;63818;37.134;-8.548;2022-10-03T20:02:33;101794.1;;;22.8;59.4
72124;BME280;63818;37.134;-8.548;2022-10-03T20:07:26;101792.2;;;22.8;58.5
72124;BME280;63818;37.134;-8.548;2022-10-03T20:12:17;101786.8;;;22.9;57.7
72124;BME280;63818;37.134;-8.548;2022-10-03T20:17:11;101797.2;;;22.8;57.6
72124;BME280;63818;37.134;-8.548;2022-10-03T20:22:02;101809.7;;;22.8;57.7
72124;BME280;63818;37.134;-8.548;2022-10-03T20:26:53;101797.6;;;22.8;57.3
72124;BME280;63818;37.134;-8.548;2022-10-03T20:31:43;101800.8;;;22.8;56.3
72124;BME280;63818;37.134;-8.548;2022-10-03T20:36:31;101804.7;;;22.8;57.4
72124;BME280;63818;37.134;-8.548;2022-10-03T20:46:29;101819.4;;;22.6;59.3
72124;BME280;63818;37.134;-8.548;2022-10-03T20:51:40;101816.0;;;22.4;60.9
72124;BME280;63818;37.134;-8.548;2022-10-03T20:56:34;101827.1;;;22.3;61.5
72124;BME280;63818;37.134;-8.548;2022-10-03T21:01:23;101835.1;;;22.2;62.5
72124;BME280;63818;37.134;-8.548;2022-10-03T21:06:16;101842.7;;;22.3;62.1
72124;BME280;63818;37.134;-8.548;2022-10-03T21:11:21;101832.4;;;22.4;61.9
72124;BME280;63818;37.134;-8.548;2022-10-03T21:16:19;101840.3;;;22.6;61.0
72124;BME280;63818;37.134;-8.548;2022-10-03T21:21:09;101831.7;;;22.6;60.7
72124;BME280;63818;37.134;-8.548;2022-10-03T21:26:01;101824.9;;;22.6;60.5
72124;BME280;63818;37.134;-8.548;2022-10-03T21:31:32;101821.5;;;22.6;60.4
72124;BME280;63818;37.134;-8.548;2022-10-03T21:36:24;101823.2;;;22.7;60.4
72124;BME280;63818;37.134;-8.548;2022-10-03T21:41:22;101813.9;;;22.7;60.2
72124;BME280;63818;37.134;-8.548;2022-10-03T21:46:16;101818.5;;;22.7;60.1
72124;BME280;63818;37.134;-8.548;2022-10-03T21:51:16;101817.0;;;22.7;59.8
72124;BME280;63818;37.134;-8.548;2022-10-03T21:56:13;101825.2;;;22.7;59.3
72124;BME280;63818;37.134;-8.548;2022-10-03T22:01:10;101819.1;;;22.6;59.8
72124;BME280;63818;37.134;-8.548;2022-10-03T22:06:06;101824.3;;;22.6;59.7
72124;BME280;63818;37.134;-8.548;2022-10-03T22:11:01;101821.9;;;22.6;59.5
72124;BME280;63818;37.134;-8.548;2022-10-03T22:15:54;101815.2;;;22.6;60.1
72124;BME280;63818;37.134;-8.548;2022-10-03T22:20:58;101825.4;;;22.6;59.8
72124;BME280;63818;37.134;-8.548;2022-10-03T22:26:01;101826.5;;;22.6;60.3
72124;BME280;63818;37.134;-8.548;2022-10-03T22:31:01;101826.0;;;22.5;61.2
72124;BME280;63818;37.134;-8.548;2022-10-03T22:35:51;101818.1;;;22.5;61.5
72124;BME280;63818;37.134;-8.548;2022-10-03T22:40:38;101825.9;;;22.5;61.0
72124;BME280;63818;37.134;-8.548;2022-10-03T22:45:29;101820.0;;;22.5;60.7
72124;BME280;63818;37.134;-8.548;2022-10-03T22:50:17;101829.7;;;22.4;61.4
72124;BME280;63818;37.134;-8.548;2022-10-03T22:55:07;101820.5;;;22.3;62.1
72124;BME280;63818;37.134;-8.548;2022-10-03T22:59:57;101819.3;;;22.3;62.4
72124;BME280;63818;37.134;-8.548;2022-10-03T23:04:48;101821.9;;;22.2;63.8
72124;BME280;63818;37.134;-8.548;2022-10-03T23:09:40;101821.5;;;22.2;64.2
72124;BME280;63818;37.134;-8.548;2022-10-03T23:14:32;101811.5;;;22.3;64.2
72124;BME280;63818;37.134;-8.548;2022-10-03T23:19:29;101808.9;;;22.2;64.1
72124;BME280;63818;37.134;-8.548;2022-10-03T23:24:25;101807.3;;;22.1;63.7
72124;BME280;63818;37.134;-8.548;2022-10-03T23:29:16;101818.4;;;22.1;64.2
72124;BME280;63818;37.134;-8.548;2022-10-03T23:34:02;101820.6;;;22.0;64.5
72124;BME280;63818;37.134;-8.548;2022-10-03T23:38:58;101814.8;;;22.0;64.4
72124;BME280;63818;37.134;-8.548;2022-10-03T23:43:48;101815.3;;;22.1;64.9
72124;BME280;63818;37.134;-8.548;2022-10-03T23:48:40;101811.3;;;22.0;65.6
72124;BME280;63818;37.134;-8.548;2022-10-03T23:53:33;101810.8;;;22.0;65.8
72124;BME280;63818;37.134;-8.548;2022-10-03T23:58:27;101803.4;;;22.0;65.9
